Impacts METAR Board
IDs:

KFWS - Fort Worth/Spinks Ar, TX, US

Updated at: 0600 UTC 19 Aug 2019
Potential Impact None Slight Moderate High
Time 18/18Z 18/19Z 18/20Z 18/21Z 18/22Z 18/23Z 19/00Z 19/01Z 19/02Z 19/03Z 19/04Z 19/05Z 19/06Z
Temp97 99 99 100 100 100 99 94 87 85 84 84 85
Dewpt70 68 66 66 66 64 64 65 67 67 67 67 69
Altim29.91 29.90 29.88 29.87 29.87 29.85 29.84 29.84 29.85 29.88 29.91 29.92 29.92
VIS10 10 10 10 10 10 10 10 10 10 10 10 10
CIG-- -- -- -- -- -- -- -- -- -- -- -- --
CoverCLRCLRCLRCLRFEWCLRCLRCLRCLRCLRCLRCLRCLR
FltCatVFRVFRVFRVFRVFRVFRVFRVFRVFRVFRVFRVFRVFR
WX--------------------------
WDir170160180140160170150170130140140150160
WSpd9 6 7 9 8 10 11 5 4 4 5 6 7
WGst-- -- -- -- 14 16 17 -- -- -- -- -- --
Raw hourly METARs
KFWS 181755Z 17009KT 10SM CLR 36/21 A2991
KFWS 181853Z 16006KT 10SM CLR 37/20 A2990
KFWS 181952Z 18007KT 10SM CLR 37/19 A2988
KFWS 182052Z 14009KT 10SM CLR 38/19 A2987
KFWS 182147Z 16008G14KT 10SM FEW085 38/19 A2987
KFWS 182246Z 17010G16KT 10SM CLR 38/18 A2985
KFWS 182345Z 15011G17KT 10SM CLR 37/18 A2984
KFWS 190055Z AUTO 17005KT 10SM CLR 34/18 A2984 RMK AO2 T03440184
KFWS 190155Z AUTO 13004KT 10SM CLR 31/19 A2985 RMK AO2 T03080193
KFWS 190255Z AUTO 14004KT 10SM CLR 29/20 A2988 RMK AO2 T02920195
KFWS 190355Z AUTO 14005KT 10SM CLR 29/19 A2991 RMK AO2 T02880193
KFWS 190455Z AUTO 15006KT 10SM CLR 29/20 A2992 RMK AO2 T02870195
KFWS 190555Z AUTO 16007KT 10SM CLR 29/21 A2992 RMK AO2 T02920205 10365 20287 403820260



Page loaded:  06:15 UTC  |   11:15 PM Pacific  |   12:15 AM Mountain  |   01:15 AM Central  |   02:15 AM Eastern

 

ADVISORIES

FORECASTS

FORECASTS

OBSERVATIONS

USER TOOLS

ABOUT US